Time;durP1;ratioP1;P1;durP2;ratioP2;P2;SDS_P1;SDS_P2;PMS_P1;PMS_P2;Temp;Humidity;BMP_temperature;BMP_pressure;BME280_temperature;BME280_humidity;BME280_pressure;Samples;Min_cycle;Max_cycle;Signal;HPM_P1;HPM_P2
2024/03/10 00:00:53;;;;;;;28.20;10.70;;;;;;;;;;5085883;28;20466;-76
2024/03/10 00:03:19;;;;;;;25.85;12.10;;;;;;;;;;5105563;28;20019;-76
2024/03/10 00:05:45;;;;;;;41.80;13.65;;;;;;;;;;5088655;28;20173;-76
2024/03/10 00:08:11;;;;;;;27.60;12.32;;;;;;;;;;5102127;28;20577;-76
2024/03/10 00:10:40;;;;;;;21.63;10.30;;;;;;;;;;5102353;27;20024;-76
2024/03/10 00:13:08;;;;;;;27.58;12.50;;;;;;;;;;5097754;28;20093;-77
2024/03/10 00:15:37;;;;;;;23.55;11.32;;;;;;;;;;5099874;28;20043;-77
2024/03/10 00:18:05;;;;;;;24.95;11.65;;;;;;;;;;5107121;28;20015;-77
2024/03/10 00:20:32;;;;;;;24.05;10.75;;;;;;;;;;5099028;28;20012;-77
2024/03/10 00:22:58;;;;;;;22.55;10.93;;;;;;;;;;5096999;28;20058;-76
2024/03/10 00:25:25;;;;;;;22.42;11.90;;;;;;;;;;5098685;28;20500;-77
2024/03/10 00:27:51;;;;;;;20.80;11.10;;;;;;;;;;5098304;28;20027;-77
2024/03/10 00:30:18;;;;;;;30.02;12.77;;;;;;;;;;5097846;28;20028;-77
2024/03/10 00:32:44;;;;;;;31.63;12.75;;;;;;;;;;5104017;28;20488;-77
2024/03/10 00:35:10;;;;;;;30.08;11.20;;;;;;;;;;5081923;28;20127;-76
2024/03/10 00:37:38;;;;;;;25.15;12.98;;;;;;;;;;5083307;28;20059;-78
2024/03/10 00:40:05;;;;;;;27.75;10.75;;;;;;;;;;5106101;28;20047;-76
2024/03/10 00:42:31;;;;;;;27.23;11.20;;;;;;;;;;5103120;28;20051;-77
2024/03/10 00:44:57;;;;;;;34.88;11.98;;;;;;;;;;5101741;28;20024;-76
2024/03/10 00:47:24;;;;;;;34.45;10.90;;;;;;;;;;5086340;28;20022;-76
2024/03/10 00:49:50;;;;;;;27.88;12.35;;;;;;;;;;5102529;28;20038;-77
2024/03/10 00:52:16;;;;;;;28.48;12.10;;;;;;;;;;5103821;28;20028;-78
2024/03/10 00:54:43;;;;;;;29.02;10.60;;;;;;;;;;5101835;27;20078;-76
2024/03/10 00:57:09;;;;;;;28.63;13.73;;;;;;;;;;5082613;28;20031;-77
2024/03/10 00:59:35;;;;;;;20.85;10.77;;;;;;;;;;5081101;28;20028;-77
2024/03/10 01:02:03;;;;;;;28.20;12.27;;;;;;;;;;5094590;28;20032;-76
2024/03/10 01:04:29;;;;;;;23.42;10.25;;;;;;;;;;5099106;28;20516;-77
2024/03/10 01:06:56;;;;;;;20.83;10.10;;;;;;;;;;5097830;28;20050;-77
2024/03/10 01:09:23;;;;;;;32.53;10.90;;;;;;;;;;5082324;28;20024;-77
2024/03/10 01:11:53;;;;;;;23.27;10.73;;;;;;;;;;5103195;28;20072;-77
2024/03/10 01:14:19;;;;;;;20.25;11.35;;;;;;;;;;5104359;28;20484;-76
2024/03/10 01:16:46;;;;;;;24.40;8.95;;;;;;;;;;5078852;28;20023;-77
2024/03/10 01:19:13;;;;;;;22.13;11.55;;;;;;;;;;5107456;28;20055;-77
2024/03/10 01:21:39;;;;;;;21.92;11.15;;;;;;;;;;5098603;28;20637;-77
2024/03/10 01:24:06;;;;;;;22.40;10.25;;;;;;;;;;5088607;28;20473;-77
2024/03/10 01:26:32;;;;;;;21.63;11.82;;;;;;;;;;5078384;28;20493;-76
2024/03/10 01:28:58;;;;;;;22.33;8.43;;;;;;;;;;5102893;28;20099;-77
2024/03/10 01:31:26;;;;;;;18.42;9.70;;;;;;;;;;5107299;28;20063;-76
2024/03/10 01:33:52;;;;;;;24.98;11.75;;;;;;;;;;5088177;28;20054;-77
2024/03/10 01:36:18;;;;;;;22.02;11.23;;;;;;;;;;5097184;28;20416;-77
2024/03/10 01:38:44;;;;;;;18.95;10.43;;;;;;;;;;5098828;28;20074;-77
2024/03/10 01:41:13;;;;;;;20.98;10.75;;;;;;;;;;5099703;28;20035;-77
2024/03/10 01:43:47;;;;;;;22.90;10.30;;;;;;;;;;5101207;28;20093;-76
2024/03/10 01:46:13;;;;;;;23.05;12.55;;;;;;;;;;5097461;28;20486;-76
2024/03/10 01:48:40;;;;;;;23.58;12.35;;;;;;;;;;5085214;28;20384;-77
2024/03/10 01:51:10;;;;;;;20.45;10.82;;;;;;;;;;5103680;28;20053;-77
2024/03/10 01:53:37;;;;;;;23.13;10.27;;;;;;;;;;5109336;28;20092;-76
2024/03/10 01:56:04;;;;;;;20.90;12.65;;;;;;;;;;5109326;27;20027;-76
2024/03/10 01:58:31;;;;;;;29.52;10.52;;;;;;;;;;5093285;28;20039;-76
2024/03/10 02:01:02;;;;;;;18.38;10.20;;;;;;;;;;5104759;28;20036;-76
2024/03/10 02:03:29;;;;;;;20.25;10.55;;;;;;;;;;5113580;27;20453;-77
2024/03/10 02:05:55;;;;;;;21.60;10.02;;;;;;;;;;5100769;28;20034;-77
2024/03/10 02:08:21;;;;;;;24.52;10.98;;;;;;;;;;5090912;28;20027;-76
2024/03/10 02:10:52;;;;;;;24.48;10.48;;;;;;;;;;5108541;27;20486;-76
2024/03/10 02:13:18;;;;;;;16.00;9.70;;;;;;;;;;5101659;28;20465;-75
2024/03/10 02:15:44;;;;;;;18.48;9.05;;;;;;;;;;5104691;28;20031;-76
2024/03/10 02:18:12;;;;;;;23.90;10.77;;;;;;;;;;5086449;28;20464;-77
2024/03/10 02:20:38;;;;;;;22.40;11.52;;;;;;;;;;5107766;28;20032;-77
2024/03/10 02:23:05;;;;;;;19.98;8.63;;;;;;;;;;5104513;28;20027;-77
2024/03/10 02:25:38;;;;;;;24.42;10.60;;;;;;;;;;5110257;28;20053;-76
2024/03/10 02:28:20;;;;;;;25.10;10.05;;;;;;;;;;5099311;27;20035;-76
2024/03/10 02:30:56;;;;;;;22.30;10.77;;;;;;;;;;5097820;28;20378;-77
2024/03/10 02:47:14;;;;;;;33.40;12.88;;;;;;;;;;5096183;27;20100;-78
2024/03/10 02:49:40;;;;;;;32.33;11.98;;;;;;;;;;5088465;27;20089;-77
2024/03/10 02:52:08;;;;;;;25.50;12.20;;;;;;;;;;5103733;28;20084;-77
2024/03/10 02:54:35;;;;;;;33.08;11.20;;;;;;;;;;5084665;28;20412;-77
2024/03/10 02:57:01;;;;;;;25.95;12.43;;;;;;;;;;5109361;28;20024;-77
2024/03/10 02:59:29;;;;;;;20.05;10.10;;;;;;;;;;5090567;28;20038;-77
2024/03/10 03:01:55;;;;;;;18.65;10.05;;;;;;;;;;5087015;28;20134;-77
2024/03/10 03:04:26;;;;;;;21.60;10.32;;;;;;;;;;5109310;28;20043;-77
2024/03/10 03:06:52;;;;;;;25.60;12.95;;;;;;;;;;5087121;28;20031;-77
2024/03/10 03:09:20;;;;;;;19.15;10.30;;;;;;;;;;5104252;28;20488;-76
2024/03/10 03:11:46;;;;;;;27.13;12.27;;;;;;;;;;5108643;28;20039;-76
2024/03/10 03:14:13;;;;;;;28.83;12.38;;;;;;;;;;5095150;28;20073;-77
2024/03/10 03:16:40;;;;;;;24.58;10.90;;;;;;;;;;5103027;28;20032;-77
2024/03/10 03:19:06;;;;;;;31.90;10.40;;;;;;;;;;5107309;27;20063;-77
2024/03/10 03:21:36;;;;;;;26.58;10.63;;;;;;;;;;5107062;28;20059;-77
2024/03/10 03:24:07;;;;;;;31.60;12.85;;;;;;;;;;5101349;27;20027;-78
2024/03/10 03:26:33;;;;;;;22.55;11.30;;;;;;;;;;5100431;27;20028;-77
2024/03/10 03:29:01;;;;;;;37.58;13.77;;;;;;;;;;5099145;27;20032;-77
2024/03/10 03:31:27;;;;;;;29.10;11.77;;;;;;;;;;5094612;28;20023;-77
2024/03/10 03:33:53;;;;;;;35.38;11.80;;;;;;;;;;5085390;28;20057;-78
2024/03/10 03:36:20;;;;;;;27.25;11.68;;;;;;;;;;5097943;28;20449;-77
2024/03/10 03:38:46;;;;;;;41.75;12.00;;;;;;;;;;5101021;28;20061;-77
2024/03/10 03:41:12;;;;;;;23.00;12.48;;;;;;;;;;5104137;28;20032;-77
2024/03/10 03:43:38;;;;;;;24.15;12.20;;;;;;;;;;5101651;28;20046;-77
2024/03/10 03:46:04;;;;;;;22.27;10.35;;;;;;;;;;5099766;28;20596;-77
2024/03/10 03:48:33;;;;;;;27.67;10.73;;;;;;;;;;5108104;28;20031;-77
2024/03/10 03:50:59;;;;;;;23.88;11.27;;;;;;;;;;5085137;28;20024;-77
2024/03/10 03:53:26;;;;;;;26.55;10.05;;;;;;;;;;5107531;28;20038;-77
2024/03/10 03:55:52;;;;;;;30.75;9.65;;;;;;;;;;5086940;28;20038;-78
2024/03/10 03:58:19;;;;;;;26.92;12.32;;;;;;;;;;5104576;27;20031;-77
2024/03/10 04:00:45;;;;;;;29.88;13.15;;;;;;;;;;5107118;28;20035;-77
2024/03/10 04:03:11;;;;;;;26.00;13.15;;;;;;;;;;5102739;28;20032;-77
2024/03/10 04:05:40;;;;;;;27.00;11.00;;;;;;;;;;5097596;28;20486;-78
2024/03/10 04:08:07;;;;;;;23.50;11.40;;;;;;;;;;5107181;28;20045;-77
2024/03/10 04:10:36;;;;;;;27.38;10.55;;;;;;;;;;5097626;28;20388;-77
2024/03/10 04:13:05;;;;;;;22.48;10.98;;;;;;;;;;5101555;28;20776;-77
2024/03/10 04:15:35;;;;;;;23.45;9.00;;;;;;;;;;5096107;28;20397;-77
2024/03/10 04:18:04;;;;;;;22.35;10.93;;;;;;;;;;5100799;28;20039;-77
2024/03/10 04:20:31;;;;;;;23.50;11.45;;;;;;;;;;5096999;28;20709;-77
2024/03/10 04:22:58;;;;;;;29.90;11.07;;;;;;;;;;5108924;28;20031;-77
2024/03/10 04:25:24;;;;;;;22.90;9.70;;;;;;;;;;5104150;28;20080;-77
2024/03/10 04:27:50;;;;;;;27.02;10.32;;;;;;;;;;5098413;28;20031;-77
2024/03/10 04:30:16;;;;;;;33.47;12.10;;;;;;;;;;5081069;28;20035;-78
2024/03/10 04:32:42;;;;;;;27.42;10.95;;;;;;;;;;5105118;28;20031;-77
2024/03/10 04:35:11;;;;;;;24.90;11.98;;;;;;;;;;5081512;28;20016;-77
2024/03/10 04:37:38;;;;;;;27.48;11.75;;;;;;;;;;5102165;28;20081;-76
2024/03/10 04:40:10;;;;;;;30.23;11.65;;;;;;;;;;5101732;28;20024;-77
2024/03/10 04:42:40;;;;;;;50.03;13.93;;;;;;;;;;5101499;28;20024;-76
2024/03/10 04:45:07;;;;;;;19.85;10.52;;;;;;;;;;5103686;28;20032;-77
2024/03/10 04:47:33;;;;;;;25.15;11.20;;;;;;;;;;5085274;28;20034;-76
2024/03/10 04:50:00;;;;;;;24.58;10.63;;;;;;;;;;5103087;28;20045;-76
2024/03/10 04:52:26;;;;;;;34.75;12.48;;;;;;;;;;5100083;28;20026;-77
2024/03/10 04:54:52;;;;;;;16.65;9.75;;;;;;;;;;5090943;28;20015;-76
2024/03/10 04:57:24;;;;;;;23.30;9.65;;;;;;;;;;5098659;28;20019;-76
2024/03/10 04:59:51;;;;;;;18.35;10.40;;;;;;;;;;5087502;28;20022;-76
2024/03/10 05:02:17;;;;;;;31.25;12.50;;;;;;;;;;5088739;28;20035;-76
2024/03/10 05:04:46;;;;;;;33.55;12.13;;;;;;;;;;5095821;28;20076;-76
2024/03/10 05:07:12;;;;;;;17.08;10.20;;;;;;;;;;5103796;28;20032;-76
2024/03/10 05:09:38;;;;;;;21.98;10.80;;;;;;;;;;5090685;28;20189;-76
2024/03/10 05:12:05;;;;;;;28.25;11.13;;;;;;;;;;5084801;28;20032;-76
2024/03/10 05:14:31;;;;;;;19.48;10.15;;;;;;;;;;5103082;28;20040;-76
2024/03/10 05:16:59;;;;;;;24.40;11.10;;;;;;;;;;5108524;28;20032;-76
2024/03/10 05:19:28;;;;;;;28.90;11.98;;;;;;;;;;5105946;28;20031;-75
2024/03/10 05:21:55;;;;;;;24.27;10.27;;;;;;;;;;5083670;28;20023;-76
2024/03/10 05:24:22;;;;;;;30.05;10.35;;;;;;;;;;5086126;28;20032;-75
2024/03/10 05:26:48;;;;;;;29.20;10.50;;;;;;;;;;5103587;28;20035;-76
2024/03/10 05:29:14;;;;;;;25.52;11.27;;;;;;;;;;5099662;28;20031;-76
2024/03/10 05:31:43;;;;;;;25.75;12.90;;;;;;;;;;5108474;28;20549;-76
2024/03/10 05:34:09;;;;;;;26.10;10.98;;;;;;;;;;5088857;28;20098;-76
2024/03/10 05:36:35;;;;;;;31.02;11.52;;;;;;;;;;5105378;28;20043;-75
2024/03/10 05:39:01;;;;;;;22.70;9.43;;;;;;;;;;5102980;28;20489;-76
2024/03/10 05:41:27;;;;;;;21.30;10.75;;;;;;;;;;5098851;28;20028;-76
2024/03/10 05:43:53;;;;;;;19.52;10.27;;;;;;;;;;5104426;28;20385;-76
2024/03/10 05:46:19;;;;;;;27.05;10.73;;;;;;;;;;5099577;28;20411;-76
2024/03/10 05:48:47;;;;;;;30.15;12.52;;;;;;;;;;5086970;28;20541;-76
2024/03/10 05:51:13;;;;;;;30.52;13.65;;;;;;;;;;5101015;28;20043;-76
2024/03/10 05:53:43;;;;;;;26.88;12.63;;;;;;;;;;5099987;28;20031;-78
2024/03/10 05:56:10;;;;;;;31.67;12.45;;;;;;;;;;5101820;28;20519;-77
2024/03/10 05:58:38;;;;;;;23.40;11.45;;;;;;;;;;5102152;28;20091;-78
2024/03/10 06:01:04;;;;;;;34.88;14.20;;;;;;;;;;5105094;28;20497;-78
2024/03/10 06:03:30;;;;;;;23.85;10.57;;;;;;;;;;5102926;27;20051;-78
2024/03/10 06:05:57;;;;;;;24.00;12.23;;;;;;;;;;5099247;28;20107;-78
2024/03/10 06:08:23;;;;;;;24.02;11.90;;;;;;;;;;5108835;28;20044;-77
2024/03/10 06:10:53;;;;;;;27.73;10.77;;;;;;;;;;5105506;28;20473;-78
2024/03/10 06:13:20;;;;;;;27.42;10.07;;;;;;;;;;5089623;28;20024;-78
2024/03/10 06:15:46;;;;;;;27.08;10.57;;;;;;;;;;5101237;27;20024;-78
2024/03/10 06:18:18;;;;;;;19.70;10.57;;;;;;;;;;5104179;28;20471;-77
2024/03/10 06:26:14;;;;;;;27.53;11.93;;;;;;;;;;5106119;28;20276;-78
2024/03/10 06:28:40;;;;;;;27.35;11.63;;;;;;;;;;5100647;27;20054;-78
2024/03/10 06:31:07;;;;;;;25.45;11.00;;;;;;;;;;5104940;27;20415;-78
2024/03/10 06:33:38;;;;;;;27.58;11.52;;;;;;;;;;5099109;28;20027;-77
2024/03/10 06:36:11;;;;;;;30.70;10.85;;;;;;;;;;5083214;28;20032;-78
2024/03/10 06:38:41;;;;;;;33.70;13.00;;;;;;;;;;5101679;28;20043;-78
2024/03/10 06:41:07;;;;;;;23.92;12.25;;;;;;;;;;5102478;28;20035;-78
2024/03/10 06:43:34;;;;;;;18.80;9.77;;;;;;;;;;5102579;28;20035;-77
2024/03/10 06:46:01;;;;;;;24.20;11.25;;;;;;;;;;5098794;27;20554;-76
2024/03/10 06:48:27;;;;;;;37.13;11.18;;;;;;;;;;5099390;27;20027;-78
2024/03/10 06:50:54;;;;;;;23.65;11.02;;;;;;;;;;5090251;28;20043;-78
2024/03/10 06:53:20;;;;;;;35.45;11.50;;;;;;;;;;5109407;28;20028;-78
2024/03/10 06:55:47;;;;;;;25.33;11.93;;;;;;;;;;5101678;28;20115;-78
2024/03/10 06:58:13;;;;;;;30.95;11.20;;;;;;;;;;5105896;28;20032;-77
2024/03/10 07:00:39;;;;;;;27.48;12.23;;;;;;;;;;5082504;28;20031;-77
2024/03/10 07:03:07;;;;;;;39.50;13.50;;;;;;;;;;5105724;27;20072;-78
2024/03/10 07:05:33;;;;;;;28.35;12.18;;;;;;;;;;5106133;28;20093;-78
2024/03/10 07:08:00;;;;;;;30.15;11.68;;;;;;;;;;5104328;27;20024;-78
2024/03/10 07:10:29;;;;;;;22.17;12.30;;;;;;;;;;5103912;28;20035;-79
2024/03/10 07:12:58;;;;;;;27.25;12.15;;;;;;;;;;5095964;28;20175;-77
2024/03/10 07:15:24;;;;;;;22.67;12.50;;;;;;;;;;5088388;28;20519;-77
2024/03/10 07:17:50;;;;;;;39.65;14.48;;;;;;;;;;5106897;27;20504;-77
2024/03/10 07:20:16;;;;;;;30.25;11.70;;;;;;;;;;5093938;28;20032;-78
2024/03/10 07:22:43;;;;;;;24.50;10.77;;;;;;;;;;5093740;28;20019;-77
2024/03/10 07:25:10;;;;;;;24.75;11.20;;;;;;;;;;5113105;27;20103;-78
2024/03/10 07:27:36;;;;;;;29.50;11.20;;;;;;;;;;5109111;28;20047;-78
2024/03/10 07:30:04;;;;;;;34.70;11.38;;;;;;;;;;5101245;28;20456;-77
2024/03/10 07:32:33;;;;;;;29.75;13.13;;;;;;;;;;5086030;28;20019;-78
2024/03/10 07:35:00;;;;;;;33.58;13.27;;;;;;;;;;5106574;27;20882;-78
2024/03/10 07:37:27;;;;;;;28.58;12.75;;;;;;;;;;5107129;27;20096;-77
2024/03/10 07:39:56;;;;;;;41.08;15.10;;;;;;;;;;5110437;28;20481;-78
2024/03/10 07:42:26;;;;;;;33.22;11.93;;;;;;;;;;5102983;28;20027;-78
2024/03/10 07:44:52;;;;;;;30.17;11.68;;;;;;;;;;5102444;28;20055;-78
2024/03/10 07:47:18;;;;;;;31.20;14.38;;;;;;;;;;5109548;28;20134;-77
2024/03/10 07:49:44;;;;;;;36.72;12.63;;;;;;;;;;5100054;28;20417;-77
2024/03/10 07:52:11;;;;;;;26.27;13.10;;;;;;;;;;5107780;28;20591;-78
2024/03/10 07:54:37;;;;;;;31.00;12.95;;;;;;;;;;5111089;27;20027;-79
2024/03/10 07:57:04;;;;;;;29.25;13.00;;;;;;;;;;5102245;28;20020;-78
2024/03/10 07:59:32;;;;;;;25.10;14.15;;;;;;;;;;5107800;28;20084;-78
2024/03/10 08:01:59;;;;;;;31.45;14.52;;;;;;;;;;5101373;27;20032;-78
2024/03/10 08:04:26;;;;;;;27.27;12.93;;;;;;;;;;5107732;28;20020;-78
2024/03/10 08:06:52;;;;;;;32.50;13.55;;;;;;;;;;5098640;27;20022;-78
2024/03/10 08:09:19;;;;;;;35.80;12.85;;;;;;;;;;5087720;28;20106;-79
2024/03/10 08:11:46;;;;;;;30.60;14.50;;;;;;;;;;5109246;27;20024;-78
2024/03/10 08:14:12;;;;;;;30.42;11.68;;;;;;;;;;5106206;27;20028;-78
2024/03/10 08:16:38;;;;;;;32.60;11.77;;;;;;;;;;5081420;28;20432;-79
2024/03/10 08:19:05;;;;;;;31.73;13.23;;;;;;;;;;5084718;28;20503;-79
2024/03/10 08:21:31;;;;;;;34.58;13.02;;;;;;;;;;5094385;27;20028;-79
2024/03/10 08:23:57;;;;;;;30.30;13.60;;;;;;;;;;5098591;27;20020;-78
2024/03/10 08:26:24;;;;;;;28.25;13.10;;;;;;;;;;5104930;27;20098;-78
2024/03/10 08:28:50;;;;;;;30.88;13.13;;;;;;;;;;5087330;28;20111;-78
2024/03/10 08:31:19;;;;;;;26.50;11.77;;;;;;;;;;5107398;27;20052;-79
2024/03/10 08:33:45;;;;;;;40.05;15.45;;;;;;;;;;5082607;28;20034;-78
2024/03/10 08:36:11;;;;;;;28.40;11.60;;;;;;;;;;5101970;27;20087;-78
2024/03/10 08:38:38;;;;;;;35.50;14.68;;;;;;;;;;5098771;28;20024;-79
2024/03/10 08:41:08;;;;;;;30.10;13.82;;;;;;;;;;5085363;28;20392;-79
2024/03/10 08:43:35;;;;;;;24.85;11.13;;;;;;;;;;5098892;28;20028;-78
2024/03/10 08:46:02;;;;;;;23.83;11.57;;;;;;;;;;5085253;28;20036;-79
2024/03/10 08:48:29;;;;;;;36.03;12.88;;;;;;;;;;5103916;28;20779;-78
2024/03/10 08:50:55;;;;;;;23.77;10.95;;;;;;;;;;5101148;28;20028;-78
2024/03/10 08:53:22;;;;;;;28.15;12.90;;;;;;;;;;5091119;28;20035;-77
2024/03/10 08:55:50;;;;;;;28.85;13.95;;;;;;;;;;5105286;28;20030;-78
2024/03/10 08:58:17;;;;;;;22.92;11.20;;;;;;;;;;5082202;28;20028;-77
2024/03/10 09:00:43;;;;;;;25.63;12.30;;;;;;;;;;5080484;28;20030;-77
2024/03/10 09:03:10;;;;;;;29.88;13.27;;;;;;;;;;5095625;28;20071;-77
2024/03/10 09:05:36;;;;;;;25.80;11.93;;;;;;;;;;5103748;28;20027;-77
2024/03/10 09:08:03;;;;;;;29.88;11.80;;;;;;;;;;5083580;28;20031;-77
2024/03/10 09:10:29;;;;;;;27.77;11.27;;;;;;;;;;5096367;28;20028;-77
2024/03/10 09:12:55;;;;;;;26.55;11.60;;;;;;;;;;5096679;28;20028;-77
2024/03/10 09:15:22;;;;;;;30.70;12.85;;;;;;;;;;5084306;28;20023;-77
2024/03/10 09:17:48;;;;;;;29.30;10.35;;;;;;;;;;5099872;28;20481;-77
2024/03/10 09:20:15;;;;;;;18.40;10.55;;;;;;;;;;5082987;28;20473;-77
2024/03/10 09:22:41;;;;;;;25.42;11.30;;;;;;;;;;5101269;28;20024;-77
2024/03/10 09:25:12;;;;;;;23.27;11.40;;;;;;;;;;5098701;28;20024;-77
2024/03/10 09:27:43;;;;;;;21.27;13.25;;;;;;;;;;5083677;28;20423;-78
2024/03/10 09:30:13;;;;;;;32.45;10.95;;;;;;;;;;5102734;28;20027;-77
2024/03/10 09:32:42;;;;;;;28.58;14.63;;;;;;;;;;5097586;28;20119;-77
2024/03/10 09:35:09;;;;;;;28.00;11.60;;;;;;;;;;5094960;28;20105;-77
2024/03/10 09:37:39;;;;;;;28.48;12.18;;;;;;;;;;5088953;28;20044;-76
2024/03/10 09:40:06;;;;;;;24.45;12.82;;;;;;;;;;5084932;28;20034;-77
2024/03/10 09:42:34;;;;;;;20.48;11.95;;;;;;;;;;5098495;28;20028;-77
2024/03/10 09:45:01;;;;;;;35.90;12.68;;;;;;;;;;5093796;28;20571;-77
2024/03/10 09:47:28;;;;;;;25.65;11.50;;;;;;;;;;5088529;28;20028;-77
2024/03/10 09:49:54;;;;;;;25.38;12.27;;;;;;;;;;5099658;28;20111;-77
2024/03/10 09:52:21;;;;;;;24.90;13.98;;;;;;;;;;5081626;28;20316;-77
2024/03/10 09:54:48;;;;;;;28.00;11.32;;;;;;;;;;5099560;28;20027;-78
2024/03/10 09:57:14;;;;;;;20.35;11.13;;;;;;;;;;5098429;28;20020;-77
2024/03/10 09:59:44;;;;;;;27.50;10.88;;;;;;;;;;5105866;28;20544;-77
2024/03/10 10:02:18;;;;;;;23.58;10.00;;;;;;;;;;5101493;28;20043;-77
2024/03/10 10:04:51;;;;;;;25.17;11.60;;;;;;;;;;5081119;28;20059;-77
2024/03/10 10:07:18;;;;;;;26.42;12.88;;;;;;;;;;5074926;28;20488;-78
2024/03/10 10:09:55;;;;;;;32.53;10.90;;;;;;;;;;5083142;28;20047;-77
2024/03/10 10:12:21;;;;;;;22.70;9.75;;;;;;;;;;5080630;28;20032;-77
2024/03/10 10:14:47;;;;;;;20.70;9.60;;;;;;;;;;5101274;28;20019;-77
2024/03/10 10:17:22;;;;;;;24.67;10.57;;;;;;;;;;5097507;28;20032;-76
2024/03/10 10:19:50;;;;;;;26.70;10.77;;;;;;;;;;5110580;28;20023;-78
2024/03/10 10:22:17;;;;;;;23.13;10.23;;;;;;;;;;5100534;28;20027;-78
2024/03/10 10:24:44;;;;;;;25.95;10.57;;;;;;;;;;5100181;28;20374;-77
2024/03/10 10:27:10;;;;;;;20.80;10.38;;;;;;;;;;5095757;27;20031;-77
2024/03/10 10:29:52;;;;;;;23.17;9.77;;;;;;;;;;5107227;28;20031;-78
2024/03/10 10:32:22;;;;;;;18.33;9.60;;;;;;;;;;5106106;28;20028;-77
2024/03/10 10:34:48;;;;;;;22.77;11.10;;;;;;;;;;5082373;28;20019;-78
2024/03/10 10:37:15;;;;;;;18.52;9.98;;;;;;;;;;5083693;28;20071;-77
2024/03/10 10:39:41;;;;;;;29.40;10.82;;;;;;;;;;5077464;28;20194;-78
2024/03/10 10:42:10;;;;;;;22.13;8.52;;;;;;;;;;5085408;28;20112;-77
2024/03/10 10:44:42;;;;;;;19.70;8.23;;;;;;;;;;5069595;28;20417;-78
2024/03/10 10:47:09;;;;;;;21.45;10.10;;;;;;;;;;5087021;28;20028;-77
2024/03/10 10:49:35;;;;;;;21.23;9.63;;;;;;;;;;5086632;28;20047;-78
2024/03/10 10:52:02;;;;;;;23.38;8.27;;;;;;;;;;5074838;28;20042;-77
2024/03/10 10:54:29;;;;;;;15.90;6.95;;;;;;;;;;5073524;28;20101;-78
2024/03/10 10:57:00;;;;;;;21.83;8.70;;;;;;;;;;5079425;28;20005;-78
2024/03/10 10:59:27;;;;;;;24.95;9.38;;;;;;;;;;5081332;28;20028;-77
2024/03/10 11:02:05;;;;;;;20.65;7.78;;;;;;;;;;5077989;28;20107;-78
2024/03/10 11:04:31;;;;;;;30.52;8.57;;;;;;;;;;5089175;28;20032;-77
2024/03/10 11:06:58;;;;;;;13.30;7.40;;;;;;;;;;5095355;28;20024;-77
2024/03/10 11:09:28;;;;;;;14.90;7.78;;;;;;;;;;5085773;28;20017;-78
2024/03/10 11:11:54;;;;;;;27.55;8.77;;;;;;;;;;5077412;28;20109;-78
2024/03/10 11:14:26;;;;;;;15.23;6.50;;;;;;;;;;5084880;28;20028;-78
2024/03/10 11:17:12;;;;;;;17.15;6.78;;;;;;;;;;5084106;28;20483;-78
2024/03/10 11:19:42;;;;;;;;;;;;;;;;;;5084758;28;20489;-78
2024/03/10 11:22:09;;;;;;;17.15;7.45;;;;;;;;;;5079041;28;21302;-78
2024/03/10 11:24:36;;;;;;;18.25;7.03;;;;;;;;;;5074717;28;20035;-78
2024/03/10 11:27:11;;;;;;;13.77;6.65;;;;;;;;;;5081746;28;20024;-78
2024/03/10 11:29:38;;;;;;;12.15;7.65;;;;;;;;;;5088883;28;20024;-79
2024/03/10 11:32:24;;;;;;;14.23;6.85;;;;;;;;;;5071170;28;20024;-78
2024/03/10 11:34:53;;;;;;;11.57;6.82;;;;;;;;;;5079274;28;20251;-78
2024/03/10 11:37:20;;;;;;;18.65;7.75;;;;;;;;;;5091932;28;20382;-78
2024/03/10 11:39:46;;;;;;;12.60;6.32;;;;;;;;;;5088420;28;20047;-78
2024/03/10 11:42:14;;;;;;;15.25;6.55;;;;;;;;;;5090183;28;20032;-78
2024/03/10 11:44:40;;;;;;;9.15;5.63;;;;;;;;;;5095304;28;20484;-79
2024/03/10 11:47:11;;;;;;;15.65;5.97;;;;;;;;;;5102901;27;20035;-78
2024/03/10 11:49:39;;;;;;;17.27;7.05;;;;;;;;;;5090077;28;20035;-77
2024/03/10 11:52:06;;;;;;;14.95;6.28;;;;;;;;;;5105645;28;20039;-78
2024/03/10 11:54:36;;;;;;;13.10;6.53;;;;;;;;;;5101780;28;20362;-77
2024/03/10 11:57:02;;;;;;;16.40;5.97;;;;;;;;;;5106356;27;20143;-78
2024/03/10 11:59:30;;;;;;;13.00;6.15;;;;;;;;;;5108023;28;20107;-77
2024/03/10 12:01:58;;;;;;;18.88;7.00;;;;;;;;;;5077908;28;20122;-77
2024/03/10 12:04:27;;;;;;;8.73;5.63;;;;;;;;;;5104691;28;20020;-77
2024/03/10 12:06:54;;;;;;;11.60;6.90;;;;;;;;;;5089854;28;20023;-77
2024/03/10 12:09:22;;;;;;;11.65;5.85;;;;;;;;;;5084975;28;20051;-77
2024/03/10 12:11:49;;;;;;;12.70;7.22;;;;;;;;;;5092826;28;20071;-78
2024/03/10 12:14:16;;;;;;;12.10;6.18;;;;;;;;;;5105107;28;20758;-77
2024/03/10 12:16:50;;;;;;;10.55;6.43;;;;;;;;;;5103782;28;20027;-77
2024/03/10 12:19:17;;;;;;;10.35;6.32;;;;;;;;;;5096168;28;20046;-79
2024/03/10 12:21:45;;;;;;;14.27;6.53;;;;;;;;;;5099156;28;20028;-79
2024/03/10 12:24:11;;;;;;;15.88;6.82;;;;;;;;;;5091671;28;20027;-77
2024/03/10 12:26:37;;;;;;;15.30;5.97;;;;;;;;;;5091474;28;20497;-77
2024/03/10 12:29:06;;;;;;;21.45;6.35;;;;;;;;;;5085612;28;20032;-77
2024/03/10 12:31:43;;;;;;;18.25;6.32;;;;;;;;;;5082633;28;20381;-77
2024/03/10 12:34:11;;;;;;;17.13;5.53;;;;;;;;;;5097032;28;20242;-77
2024/03/10 12:36:37;;;;;;;14.60;5.50;;;;;;;;;;5086810;28;20054;-77
2024/03/10 12:39:11;;;;;;;9.35;5.97;;;;;;;;;;5082837;28;20409;-76
2024/03/10 12:41:37;;;;;;;16.95;5.68;;;;;;;;;;5077880;28;20111;-77
2024/03/10 12:44:03;;;;;;;8.10;4.72;;;;;;;;;;5079473;28;20340;-77
2024/03/10 12:46:29;;;;;;;6.65;5.07;;;;;;;;;;5074433;28;20020;-78
2024/03/10 12:48:56;;;;;;;8.05;4.13;;;;;;;;;;5084519;28;20028;-77
2024/03/10 12:51:22;;;;;;;7.53;3.58;;;;;;;;;;5085728;28;20372;-76
2024/03/10 12:53:48;;;;;;;7.45;4.32;;;;;;;;;;5078774;28;20043;-76
2024/03/10 12:56:16;;;;;;;9.52;4.38;;;;;;;;;;5075105;28;20032;-77
2024/03/10 12:58:45;;;;;;;7.28;3.70;;;;;;;;;;5074592;28;20088;-78
2024/03/10 13:01:12;;;;;;;4.28;3.45;;;;;;;;;;5079147;28;20213;-76
2024/03/10 13:03:38;;;;;;;9.38;3.53;;;;;;;;;;5073384;28;20032;-77
2024/03/10 13:06:05;;;;;;;6.18;3.50;;;;;;;;;;5067860;28;20505;-76
2024/03/10 13:08:31;;;;;;;7.82;3.67;;;;;;;;;;5082388;28;20039;-76
2024/03/10 13:10:58;;;;;;;6.65;3.97;;;;;;;;;;5077959;28;20467;-76
2024/03/10 13:13:24;;;;;;;3.85;2.60;;;;;;;;;;5095909;28;20024;-76
2024/03/10 13:15:50;;;;;;;4.45;3.13;;;;;;;;;;5072003;28;20032;-76
2024/03/10 13:18:19;;;;;;;6.03;3.42;;;;;;;;;;5080879;28;20100;-76
2024/03/10 13:20:45;;;;;;;10.73;3.58;;;;;;;;;;5079628;28;20489;-76
2024/03/10 13:23:12;;;;;;;7.85;3.15;;;;;;;;;;5081204;28;20081;-76
2024/03/10 13:25:38;;;;;;;8.02;3.60;;;;;;;;;;5074003;28;20016;-75
2024/03/10 13:28:07;;;;;;;13.35;3.70;;;;;;;;;;5082116;28;20072;-79
2024/03/10 13:30:33;;;;;;;6.70;3.08;;;;;;;;;;5082061;28;20025;-76
2024/03/10 13:32:59;;;;;;;5.63;3.42;;;;;;;;;;5076380;28;20032;-76
2024/03/10 13:35:26;;;;;;;8.10;3.80;;;;;;;;;;5080185;28;20240;-75
2024/03/10 13:37:52;;;;;;;9.27;3.08;;;;;;;;;;5096966;28;20105;-76
2024/03/10 13:40:19;;;;;;;9.55;4.60;;;;;;;;;;5105005;28;20027;-74
2024/03/10 13:42:46;;;;;;;5.90;3.95;;;;;;;;;;5102378;28;20024;-76
2024/03/10 13:45:12;;;;;;;12.65;4.50;;;;;;;;;;5081071;28;20032;-75
2024/03/10 13:47:42;;;;;;;4.45;3.08;;;;;;;;;;5082723;28;20505;-76
2024/03/10 13:50:14;;;;;;;5.05;3.45;;;;;;;;;;5099549;27;20012;-75
2024/03/10 13:52:41;;;;;;;6.10;4.38;;;;;;;;;;5086738;28;20031;-76
2024/03/10 13:55:08;;;;;;;7.30;4.35;;;;;;;;;;5087101;28;20055;-76
2024/03/10 13:57:34;;;;;;;7.97;3.90;;;;;;;;;;5079551;28;20032;-75
2024/03/10 14:00:01;;;;;;;9.20;5.07;;;;;;;;;;5082984;28;20369;-76
2024/03/10 14:02:27;;;;;;;9.57;6.00;;;;;;;;;;5101056;28;20054;-75
2024/03/10 14:04:54;;;;;;;8.57;4.72;;;;;;;;;;5105259;28;20030;-77
2024/03/10 14:07:20;;;;;;;9.30;4.65;;;;;;;;;;5104899;27;20404;-76
2024/03/10 14:09:46;;;;;;;5.80;4.28;;;;;;;;;;5104599;27;20046;-75
2024/03/10 14:12:13;;;;;;;15.85;4.82;;;;;;;;;;5089913;28;20542;-76
2024/03/10 14:14:39;;;;;;;14.30;5.28;;;;;;;;;;5107848;28;20070;-75
2024/03/10 14:17:06;;;;;;;8.88;5.13;;;;;;;;;;5103196;27;20028;-75
2024/03/10 14:19:33;;;;;;;11.38;4.70;;;;;;;;;;5106480;28;20145;-76
2024/03/10 14:21:59;;;;;;;9.93;4.70;;;;;;;;;;5080544;28;20437;-75
2024/03/10 14:24:25;;;;;;;10.25;4.40;;;;;;;;;;5100895;28;20024;-76
2024/03/10 14:26:56;;;;;;;8.25;5.15;;;;;;;;;;5083179;28;20508;-77
2024/03/10 14:29:22;;;;;;;9.63;4.57;;;;;;;;;;5102416;27;20111;-75
2024/03/10 14:31:49;;;;;;;12.93;6.28;;;;;;;;;;5091420;28;20035;-77
2024/03/10 14:34:15;;;;;;;9.13;4.55;;;;;;;;;;5088249;28;20077;-77
2024/03/10 14:36:42;;;;;;;9.55;4.65;;;;;;;;;;5091240;28;20055;-77
2024/03/10 14:39:12;;;;;;;12.00;6.03;;;;;;;;;;5104482;28;20400;-77
2024/03/10 14:41:39;;;;;;;18.08;6.53;;;;;;;;;;5106111;28;20028;-77
2024/03/10 14:44:06;;;;;;;18.17;5.75;;;;;;;;;;5104009;28;20023;-77